createdAt,value
2023-02-17T01:25:27.802Z,21.26
2023-02-17T01:26:27.885Z,21.26
2023-02-17T01:27:27.958Z,21.27
2023-02-17T01:28:28.039Z,21.26
2023-02-17T01:29:28.414Z,21.23
2023-02-17T01:30:28.232Z,21.25
2023-02-17T01:31:28.400Z,21.27
2023-02-17T01:32:28.368Z,21.25
2023-02-17T01:33:28.444Z,21.23
2023-02-17T01:34:28.539Z,21.26
2023-02-17T01:35:28.601Z,21.23
2023-02-17T01:36:28.679Z,21.21
2023-02-17T01:37:28.754Z,21.25
2023-02-17T01:38:28.840Z,21.26
2023-02-17T01:39:28.924Z,21.25
2023-02-17T01:40:28.991Z,21.26
2023-02-17T01:41:29.076Z,21.25
2023-02-17T01:42:29.144Z,21.23
2023-02-17T01:43:29.225Z,21.26
2023-02-17T01:44:29.296Z,21.23
2023-02-17T01:45:29.376Z,21.25
2023-02-17T01:46:29.461Z,21.23
2023-02-17T01:47:29.533Z,21.25
2023-02-17T01:48:29.609Z,21.23
2023-02-17T01:49:29.689Z,21.25
2023-02-17T01:50:29.767Z,21.23
2023-02-17T01:51:29.844Z,21.25
2023-02-17T01:52:29.926Z,21.23
2023-02-17T01:53:30.008Z,21.25
2023-02-17T01:54:30.085Z,21.25
2023-02-17T01:55:30.161Z,21.25
2023-02-17T01:56:30.245Z,21.26
2023-02-17T01:57:30.363Z,21.22
2023-02-17T01:58:30.409Z,21.22
2023-02-17T03:27:37.809Z,21.21
2023-02-17T03:28:37.893Z,21.19
2023-02-17T03:29:37.973Z,21.21
2023-02-17T03:30:38.055Z,21.21
2023-02-17T03:31:38.242Z,21.22
2023-02-17T03:32:38.212Z,21.21
2023-02-17T03:33:38.300Z,21.21
2023-02-17T03:34:38.456Z,21.21
2023-02-17T03:35:38.462Z,21.18
2023-02-17T03:36:38.533Z,21.19
2023-02-17T03:37:38.628Z,21.22
2023-02-17T03:38:38.706Z,21.23
2023-02-17T03:39:38.776Z,21.21
2023-02-17T03:40:38.862Z,21.21
2023-02-17T03:41:38.950Z,21.19
2023-02-17T03:42:39.043Z,21.21
2023-02-17T03:43:39.109Z,21.22
2023-02-17T03:44:39.195Z,21.21
2023-02-17T03:46:39.371Z,21.18
2023-02-17T03:47:39.444Z,21.21
2023-02-17T03:48:39.527Z,21.21
2023-02-17T03:49:39.617Z,21.19
2023-02-17T03:50:39.698Z,21.18
2023-02-17T03:51:39.779Z,21.18
2023-02-17T03:52:40.679Z,21.21
2023-02-17T03:53:39.955Z,21.19
2023-02-17T03:54:40.036Z,21.19
2023-02-17T03:55:40.108Z,21.19
2023-02-17T03:56:40.217Z,21.19
2023-02-17T03:57:40.266Z,21.19
2023-02-17T03:58:40.353Z,21.18
2023-02-17T03:59:40.432Z,21.19
2023-02-17T04:00:40.517Z,21.18
2023-02-17T04:01:40.624Z,21.18
2023-02-17T04:02:42.910Z,21.16
2023-02-17T04:03:40.691Z,21.19
2023-02-17T04:04:40.693Z,21.18
2023-02-17T04:05:40.711Z,21.19
2023-02-17T07:53:57.809Z,21.18
2023-02-17T07:54:57.880Z,21.16
2023-02-17T07:55:57.950Z,21.16
2023-02-17T07:56:58.046Z,21.18
2023-02-17T07:57:58.126Z,21.16
2023-02-17T07:58:58.199Z,21.16
2023-02-17T07:59:58.288Z,21.15
2023-02-17T08:00:58.335Z,21.16
2023-02-17T08:01:58.427Z,21.16
2023-02-17T08:02:58.506Z,21.15
2023-02-17T08:03:58.630Z,21.16
2023-02-17T08:04:58.633Z,21.16
2023-02-17T08:05:58.717Z,21.19
2023-02-17T08:06:58.801Z,21.16
2023-02-17T08:07:58.883Z,21.15
2023-02-17T08:08:58.969Z,21.16
2023-02-17T08:09:59.049Z,21.18
2023-02-17T08:10:59.134Z,21.18
2023-02-17T08:11:59.215Z,21.18
2023-02-17T08:12:59.289Z,21.18
2023-02-17T08:13:59.385Z,21.16
2023-02-17T08:14:59.481Z,21.18
2023-02-17T08:15:59.551Z,21.19
2023-02-17T08:16:59.692Z,21.19
2023-02-17T08:17:59.713Z,21.22
2023-02-17T08:18:59.802Z,21.18
2023-02-17T08:20:05.910Z,21.21
2023-02-17T08:21:00.912Z,21.19
2023-02-17T08:21:59.919Z,21.21
2023-02-17T08:22:59.953Z,21.21
2023-02-17T08:23:59.963Z,21.21
2023-02-17T08:24:59.984Z,21.22
2023-02-17T08:25:59.998Z,21.22
2023-02-17T08:27:00.065Z,21.22
2023-02-17T08:28:00.043Z,21.23
2023-02-17T08:29:00.109Z,21.23
2023-02-17T08:30:00.212Z,21.23
2023-02-17T08:31:00.266Z,21.22
2023-02-17T08:32:00.457Z,21.23
2023-02-17T08:33:00.329Z,21.26
2023-02-17T08:34:00.401Z,21.25
2023-02-17T08:35:00.517Z,21.25
2023-02-17T08:36:00.585Z,21.26
2023-02-17T08:37:00.679Z,21.26
2023-02-17T08:38:00.721Z,21.25
2023-02-17T08:39:00.805Z,21.26
2023-02-17T08:40:00.871Z,21.29
2023-02-17T08:41:00.943Z,21.27
2023-02-17T08:42:01.030Z,21.29
2023-02-17T08:43:03.371Z,21.29
2023-02-17T08:44:01.227Z,21.29
2023-02-17T08:45:01.275Z,21.27
2023-02-17T08:46:01.359Z,21.30
2023-02-17T08:47:01.416Z,21.29
2023-02-17T08:48:01.518Z,21.33
2023-02-17T08:49:01.588Z,21.30
2023-02-17T08:50:01.659Z,21.32
2023-02-17T08:51:01.722Z,21.32
2023-02-17T08:52:01.816Z,21.32
2023-02-17T08:53:01.923Z,21.30
2023-02-17T08:54:01.962Z,21.30
2023-02-17T08:55:02.070Z,21.33
2023-02-17T08:56:02.090Z,21.33
2023-02-17T08:57:02.170Z,21.33
2023-02-17T08:58:02.284Z,21.33
2023-02-17T08:59:02.334Z,21.33
2023-02-17T09:00:04.216Z,21.34
2023-02-17T09:01:02.462Z,21.34
2023-02-17T09:02:02.471Z,21.36
2023-02-17T09:03:02.450Z,21.36
2023-02-17T09:04:02.449Z,21.36
2023-02-17T09:05:02.544Z,21.36
2023-02-17T09:06:02.488Z,21.39
2023-02-17T09:07:02.493Z,21.37
2023-02-17T09:08:02.506Z,21.37
2023-02-17T09:09:02.528Z,21.37
2023-02-17T09:10:02.525Z,21.37
2023-02-17T09:11:02.551Z,21.36
2023-02-17T09:12:02.599Z,21.37
2023-02-17T09:13:02.589Z,21.36
2023-02-17T09:14:02.661Z,21.39
2023-02-17T09:15:02.643Z,21.36
2023-02-17T09:16:02.746Z,21.37
2023-02-17T09:17:03.288Z,21.34
2023-02-17T09:18:02.706Z,21.37
2023-02-17T09:19:02.736Z,21.37
2023-02-17T09:20:02.781Z,21.37
2023-02-17T09:21:02.746Z,21.37
2023-02-17T09:22:02.762Z,21.36
2023-02-17T09:23:02.784Z,21.40
2023-02-17T09:24:02.785Z,21.37
2023-02-17T09:25:02.806Z,21.39
2023-02-17T09:26:02.884Z,21.37
2023-02-17T09:27:03.862Z,21.39
2023-02-17T09:28:02.854Z,21.40
2023-02-17T09:29:02.859Z,21.37
2023-02-17T09:30:02.989Z,21.39
2023-02-17T09:31:02.950Z,21.37
2023-02-17T09:32:02.989Z,21.34
2023-02-17T09:33:02.975Z,21.37
2023-02-17T09:34:03.017Z,21.37
2023-02-17T09:35:02.955Z,21.37
2023-02-17T09:36:03.017Z,21.39
2023-02-17T09:37:02.975Z,21.36
2023-02-17T09:38:02.986Z,21.36
2023-02-17T09:39:03.072Z,21.37
2023-02-17T09:40:03.040Z,21.36
2023-02-17T09:41:03.044Z,21.37
2023-02-17T09:42:03.115Z,21.36
2023-02-17T09:43:03.110Z,21.39
2023-02-17T09:44:03.121Z,21.39
2023-02-17T09:45:03.206Z,21.36
2023-02-17T09:46:03.350Z,21.39
2023-02-17T09:47:03.562Z,21.37
2023-02-17T09:48:03.387Z,21.36
2023-02-17T09:49:03.524Z,21.36
2023-02-17T09:50:03.497Z,21.37
2023-02-17T09:51:03.643Z,21.36
2023-02-17T09:52:03.646Z,21.37
2023-02-17T09:53:03.749Z,21.37
2023-02-17T09:54:03.772Z,21.42
2023-02-17T09:55:03.838Z,21.42
2023-02-17T10:00:04.232Z,21.43
2023-02-17T10:01:04.342Z,21.39
2023-02-17T11:07:07.807Z,21.73
2023-02-17T11:08:07.856Z,21.76
2023-02-17T11:09:07.867Z,21.76
2023-02-17T11:10:07.908Z,21.74
2023-02-17T11:11:07.934Z,21.76
2023-02-17T11:12:07.955Z,21.74
2023-02-17T11:13:08.019Z,21.77
2023-02-17T11:14:08.030Z,21.77
2023-02-17T11:15:08.068Z,21.76
2023-02-17T11:16:08.356Z,21.78
2023-02-17T11:17:08.106Z,21.77
2023-02-17T11:18:08.145Z,21.80
2023-02-17T11:19:08.166Z,21.81
2023-02-17T11:20:08.200Z,21.81
2023-02-17T11:21:08.219Z,21.81
2023-02-17T11:22:08.257Z,21.84
2023-02-17T11:23:08.267Z,21.84
2023-02-17T11:24:08.295Z,21.85
2023-02-17T11:25:08.327Z,21.87
2023-02-17T11:26:08.650Z,21.85
2023-02-17T11:27:08.382Z,21.87
2023-02-17T11:28:08.407Z,21.88
2023-02-17T11:29:08.449Z,21.87
2023-02-17T11:30:08.523Z,21.88
2023-02-17T11:31:08.555Z,21.91
2023-02-17T11:32:08.565Z,21.91
2023-02-17T11:33:08.534Z,21.91
2023-02-17T11:34:08.563Z,21.91
2023-02-17T11:35:08.585Z,21.91
2023-02-17T11:36:08.917Z,21.95
2023-02-17T11:37:08.626Z,21.94
2023-02-17T11:38:08.654Z,21.97
2023-02-17T11:39:08.679Z,21.95
2023-02-17T11:40:08.699Z,21.97
2023-02-17T11:41:08.731Z,21.98
2023-02-17T11:42:08.765Z,21.98
2023-02-17T11:43:08.799Z,21.97
2023-02-17T12:08:09.565Z,21.97
2023-02-17T12:09:09.588Z,21.98
2023-02-17T12:10:09.617Z,21.99
2023-02-17T12:11:09.641Z,21.99
2023-02-17T12:12:09.661Z,22.01
2023-02-17T12:13:09.684Z,22.02
2023-02-17T12:14:09.713Z,22.02
2023-02-17T12:15:09.734Z,22.02
2023-02-17T12:16:10.115Z,22.01
2023-02-17T12:17:09.778Z,21.98
2023-02-17T12:18:09.797Z,21.99
2023-02-17T12:19:09.820Z,22.01
2023-02-17T12:20:09.862Z,21.99
2023-02-17T12:21:09.866Z,22.01
2023-02-17T12:22:09.896Z,21.99
2023-02-17T12:23:09.910Z,21.99
2023-02-17T12:24:09.932Z,21.98
2023-02-17T12:25:10.182Z,22.02
2023-02-17T12:26:09.982Z,22.01
2023-02-17T12:27:10.006Z,22.01
2023-02-17T12:28:10.032Z,22.01
2023-02-17T12:29:10.056Z,22.02
2023-02-17T12:30:10.139Z,22.01
2023-02-17T12:31:11.425Z,22.02
2023-02-17T12:32:10.207Z,21.99
2023-02-17T12:33:10.146Z,22.02
2023-02-17T12:34:10.170Z,21.99
2023-02-17T12:35:10.192Z,21.99
2023-02-17T12:36:10.217Z,21.99
2023-02-17T12:37:10.228Z,21.98
2023-02-17T12:38:10.244Z,21.98
2023-02-17T12:39:10.272Z,21.97
2023-02-17T12:40:10.314Z,21.97
2023-02-17T12:41:10.362Z,21.99
2023-02-17T12:42:10.337Z,21.98
2023-02-17T12:43:10.352Z,21.98
2023-02-17T12:44:10.379Z,21.98
2023-02-17T12:45:10.398Z,22.01
2023-02-17T12:46:10.483Z,22.01
2023-02-17T12:47:10.446Z,21.99
2023-02-17T12:48:10.458Z,21.98
2023-02-17T12:49:10.468Z,21.98
2023-02-17T12:50:10.489Z,21.98
2023-02-17T12:51:10.507Z,21.98
2023-02-17T12:52:10.550Z,21.98
2023-02-17T12:53:10.582Z,21.98
2023-02-17T12:54:10.625Z,21.98
2023-02-17T12:55:10.660Z,21.98
2023-02-17T12:56:10.700Z,22.01
2023-02-17T12:57:10.751Z,21.99
2023-02-17T12:58:10.777Z,21.99
2023-02-17T12:59:10.811Z,22.01
2023-02-17T13:00:10.827Z,22.01
2023-02-17T13:01:10.994Z,21.99
2023-02-17T13:02:10.977Z,21.99
2023-02-17T13:03:10.929Z,22.01
2023-02-17T13:04:10.959Z,22.01
2023-02-17T13:05:10.977Z,22.02
2023-02-17T13:06:11.021Z,21.99
2023-02-17T13:07:11.042Z,22.01
2023-02-17T13:08:11.033Z,21.99
2023-02-17T13:09:11.048Z,21.99
2023-02-17T13:10:11.066Z,21.99
2023-02-17T13:11:11.087Z,22.01
2023-02-17T13:12:11.127Z,21.99
2023-02-17T13:13:11.129Z,21.99
2023-02-17T13:14:11.149Z,22.01
2023-02-17T13:15:11.173Z,21.98
2023-02-17T13:16:11.478Z,21.99
2023-02-17T13:17:11.205Z,22.01
2023-02-17T13:18:11.231Z,21.97
2023-02-17T13:19:11.247Z,21.99
2023-02-17T13:20:11.278Z,21.99
2023-02-17T13:21:11.875Z,21.99
2023-02-17T13:22:11.287Z,21.98
2023-02-17T13:23:11.315Z,21.98
2023-02-17T13:24:11.327Z,21.99
2023-02-17T13:25:11.336Z,21.97
2023-02-17T13:26:11.368Z,21.98
2023-02-17T13:27:11.377Z,21.98
2023-02-17T13:28:11.393Z,21.98
2023-02-17T13:29:11.484Z,22.01
2023-02-17T13:30:11.484Z,21.97
2023-02-17T13:31:11.582Z,21.99
2023-02-17T13:32:11.629Z,21.98
2023-02-17T13:33:11.485Z,21.99
2023-02-17T13:34:11.523Z,21.98
2023-02-17T13:35:11.517Z,21.97
2023-02-17T13:36:11.526Z,21.97
2023-02-17T13:37:11.538Z,21.94
2023-02-17T13:38:11.546Z,21.95
2023-02-17T13:39:11.572Z,21.95
2023-02-17T13:40:11.594Z,21.94
2023-02-17T13:41:11.602Z,21.97
2023-02-17T13:42:11.615Z,21.95
2023-02-17T13:43:11.642Z,21.95
2023-02-17T13:44:11.644Z,21.98
2023-02-17T13:45:11.669Z,21.95
2023-02-17T13:46:11.708Z,21.95
2023-02-17T17:26:17.824Z,21.74
2023-02-17T17:27:17.863Z,21.76
2023-02-17T17:28:17.886Z,21.73
2023-02-17T17:29:17.924Z,21.73
2023-02-17T17:30:17.998Z,21.76
2023-02-17T17:31:18.082Z,21.74
2023-02-17T17:32:18.205Z,21.73
2023-02-17T17:33:18.072Z,21.76
2023-02-17T17:34:18.107Z,21.76
2023-02-17T17:35:18.140Z,21.76
2023-02-17T17:36:18.182Z,21.74
2023-02-17T17:37:18.214Z,21.73
2023-02-17T17:38:18.269Z,21.74
2023-02-17T17:39:18.295Z,21.74
2023-02-17T17:40:18.314Z,21.73
2023-02-17T17:41:18.351Z,21.71
2023-02-17T17:42:18.392Z,21.73
2023-02-17T17:43:18.423Z,21.74
2023-02-17T17:44:18.461Z,21.71
2023-02-17T17:45:18.494Z,21.73
2023-02-17T17:46:18.595Z,21.76
2023-02-17T17:47:29.520Z,21.70
2023-02-17T17:48:19.601Z,21.71
2023-02-17T17:49:18.588Z,21.70
2023-02-17T17:50:18.616Z,21.71
2023-02-17T17:51:18.608Z,21.70
2023-02-17T17:52:18.639Z,21.70
2023-02-17T17:53:18.627Z,21.70
2023-02-17T17:54:18.649Z,21.68
2023-02-17T17:55:18.667Z,21.71
2023-02-17T17:56:18.683Z,21.73
2023-02-17T17:57:18.685Z,21.71
2023-02-17T17:58:18.707Z,21.71
2023-02-17T17:59:18.714Z,21.70
2023-02-17T18:00:18.750Z,21.71
2023-02-17T18:01:18.798Z,21.68
2023-02-17T18:02:18.745Z,21.70
2023-02-17T18:03:18.780Z,21.70
2023-02-17T18:04:18.837Z,21.71
2023-02-17T18:05:18.808Z,21.73
2023-02-17T18:06:18.815Z,21.70
2023-02-17T18:07:18.820Z,21.70
2023-02-17T18:08:18.838Z,21.68
2023-02-17T18:09:30.786Z,21.70
2023-02-17T18:10:19.862Z,21.67
2023-02-17T18:11:18.873Z,21.67
2023-02-17T18:12:18.892Z,21.67
2023-02-17T18:13:18.896Z,21.70
2023-02-17T18:14:18.920Z,21.70
2023-02-17T18:15:18.940Z,21.70
2023-02-17T18:16:19.029Z,21.68
2023-02-17T18:17:18.968Z,21.70
2023-02-17T18:18:18.983Z,21.68
2023-02-17T18:19:18.981Z,21.68
2023-02-17T18:20:18.993Z,21.68
2023-02-17T18:21:19.004Z,21.70
2023-02-17T18:22:19.011Z,21.65
2023-02-17T18:23:19.015Z,21.68
2023-02-17T18:24:19.043Z,21.70
2023-02-17T18:25:19.060Z,21.68
2023-02-17T18:26:19.078Z,21.68
2023-02-17T18:27:19.063Z,21.68
2023-02-17T18:28:19.086Z,21.68
2023-02-17T18:29:19.090Z,21.68
2023-02-17T18:30:19.174Z,21.68
2023-02-17T18:31:19.200Z,21.67
2023-02-17T18:32:19.144Z,21.68
2023-02-17T18:33:19.184Z,21.68
2023-02-17T18:34:19.230Z,21.67
2023-02-17T18:35:19.302Z,21.65
2023-02-17T18:36:19.308Z,21.64
2023-02-17T18:37:19.345Z,21.67
2023-02-17T18:38:19.388Z,21.65
2023-02-17T18:39:19.469Z,21.68
2023-02-17T18:40:19.481Z,21.64
2023-02-17T18:41:19.527Z,21.67
2023-02-17T18:42:19.557Z,21.65
2023-02-17T18:43:19.585Z,21.65
2023-02-17T18:44:19.629Z,21.67
2023-02-17T18:45:19.668Z,21.65
2023-02-17T18:46:19.746Z,21.65
2023-02-17T18:47:19.744Z,21.65
2023-02-17T18:48:19.782Z,21.64
2023-02-17T18:49:19.834Z,21.63
2023-02-17T18:50:19.864Z,21.65
2023-02-17T18:51:19.914Z,21.63
2023-02-17T18:52:19.956Z,21.65
2023-02-17T18:53:19.990Z,21.64
2023-02-17T18:54:20.040Z,21.64
2023-02-17T18:55:20.090Z,21.64
2023-02-17T18:56:20.134Z,21.63
2023-02-17T18:57:20.168Z,21.64
2023-02-17T18:58:20.197Z,21.63
2023-02-17T18:59:20.238Z,21.61
2023-02-17T19:00:20.299Z,21.63
2023-02-17T19:01:20.367Z,21.61
2023-02-17T19:02:20.453Z,21.63
2023-02-17T19:03:20.412Z,21.63
2023-02-17T19:04:20.475Z,21.63
2023-02-17T19:05:20.518Z,21.60
2023-02-17T19:06:20.576Z,21.63
2023-02-17T19:07:20.587Z,21.61
2023-02-17T19:08:20.650Z,21.63
2023-02-17T19:09:20.682Z,21.61
2023-02-17T19:10:20.721Z,21.61
2023-02-17T21:12:27.858Z,21.42
2023-02-17T21:13:29.639Z,21.40
2023-02-17T21:14:27.983Z,21.43
2023-02-17T21:15:28.052Z,21.40
2023-02-17T21:16:28.182Z,21.43
2023-02-17T21:17:28.191Z,21.42
2023-02-17T21:18:28.240Z,21.42
2023-02-17T21:19:28.309Z,21.42
2023-02-17T21:20:28.366Z,21.40
2023-02-17T21:21:28.434Z,21.40
2023-02-17T21:22:28.492Z,21.42
2023-02-17T21:23:28.558Z,21.40
2023-02-17T21:24:28.625Z,21.42
2023-02-17T21:25:28.680Z,21.42
2023-02-17T21:26:28.756Z,21.40
2023-02-17T21:27:28.817Z,21.40
2023-02-17T21:28:28.886Z,21.40
2023-02-17T21:29:28.952Z,21.40
2023-02-17T21:30:29.071Z,21.42
2023-02-17T21:31:29.190Z,21.39
2023-02-17T21:32:29.147Z,21.40
2023-02-17T21:33:29.211Z,21.40
2023-02-17T21:34:29.267Z,21.40
2023-02-17T21:35:29.333Z,21.40
2023-02-17T21:36:29.655Z,21.39
2023-02-17T21:37:29.464Z,21.40
2023-02-17T21:38:29.522Z,21.40
2023-02-17T21:39:29.608Z,21.39
2023-02-17T21:40:29.659Z,21.39
2023-02-17T21:41:29.730Z,21.39
2023-02-17T21:42:29.777Z,21.40
2023-02-17T21:43:29.853Z,21.39
2023-02-17T23:43:37.795Z,21.65
2023-02-17T23:44:37.848Z,21.67
2023-02-17T23:45:37.887Z,21.68
2023-02-17T23:46:37.924Z,21.73
2023-02-17T23:47:37.957Z,21.74
2023-02-17T23:48:37.995Z,21.76
2023-02-17T23:49:38.034Z,21.74
2023-02-17T23:50:38.076Z,21.76
2023-02-17T23:51:38.122Z,21.78
2023-02-17T23:52:38.196Z,21.78
2023-02-17T23:53:38.146Z,21.81
2023-02-17T23:54:38.177Z,21.85
2023-02-17T23:55:38.208Z,21.81
2023-02-17T23:56:38.229Z,21.82
2023-02-17T23:57:38.255Z,21.85
2023-02-17T23:58:38.273Z,21.84
2023-02-17T23:59:38.305Z,21.87
